sensor_id;sensor_type;location;lat;lon;timestamp;temperature;humidity
27540;DHT22;15906;52.046;4.724;2024-01-15T00:01:16;2.70;99.90
27540;DHT22;15906;52.046;4.724;2024-01-15T00:03:42;2.70;99.90
27540;DHT22;15906;52.046;4.724;2024-01-15T00:06:07;2.70;99.90
27540;DHT22;15906;52.046;4.724;2024-01-15T00:08:33;2.60;99.90
27540;DHT22;15906;52.046;4.724;2024-01-15T00:10:58;2.50;99.90
27540;DHT22;15906;52.046;4.724;2024-01-15T00:13:24;2.50;99.90
27540;DHT22;15906;52.046;4.724;2024-01-15T00:15:49;2.40;99.90
27540;DHT22;15906;52.046;4.724;2024-01-15T00:18:15;2.50;99.90
27540;DHT22;15906;52.046;4.724;2024-01-15T00:20:41;2.40;99.90
27540;DHT22;15906;52.046;4.724;2024-01-15T00:23:06;2.40;99.90
27540;DHT22;15906;52.046;4.724;2024-01-15T00:25:32;2.40;99.90
27540;DHT22;15906;52.046;4.724;2024-01-15T00:27:57;2.40;99.90
27540;DHT22;15906;52.046;4.724;2024-01-15T00:30:23;2.40;99.90
27540;DHT22;15906;52.046;4.724;2024-01-15T00:32:48;2.30;99.90
27540;DHT22;15906;52.046;4.724;2024-01-15T00:35:14;2.40;99.90
27540;DHT22;15906;52.046;4.724;2024-01-15T00:37:40;2.50;99.90
27540;DHT22;15906;52.046;4.724;2024-01-15T00:40:06;2.60;99.90
27540;DHT22;15906;52.046;4.724;2024-01-15T00:42:33;2.60;99.90
27540;DHT22;15906;52.046;4.724;2024-01-15T00:44:59;2.50;99.90
27540;DHT22;15906;52.046;4.724;2024-01-15T00:47:24;2.50;99.90
27540;DHT22;15906;52.046;4.724;2024-01-15T00:49:50;2.50;99.90
27540;DHT22;15906;52.046;4.724;2024-01-15T00:52:15;2.50;99.90
27540;DHT22;15906;52.046;4.724;2024-01-15T00:54:41;2.50;99.90
27540;DHT22;15906;52.046;4.724;2024-01-15T00:57:06;2.40;99.90
27540;DHT22;15906;52.046;4.724;2024-01-15T00:59:32;2.40;99.90
27540;DHT22;15906;52.046;4.724;2024-01-15T01:01:57;2.30;99.90
27540;DHT22;15906;52.046;4.724;2024-01-15T01:04:23;2.30;99.90
27540;DHT22;15906;52.046;4.724;2024-01-15T01:06:49;2.30;99.90
27540;DHT22;15906;52.046;4.724;2024-01-15T01:09:14;2.30;99.90
27540;DHT22;15906;52.046;4.724;2024-01-15T01:11:40;2.30;99.90
27540;DHT22;15906;52.046;4.724;2024-01-15T01:14:05;2.40;99.90
27540;DHT22;15906;52.046;4.724;2024-01-15T01:16:31;2.40;99.90
27540;DHT22;15906;52.046;4.724;2024-01-15T01:19:04;2.40;99.90
27540;DHT22;15906;52.046;4.724;2024-01-15T01:21:30;2.40;99.90
27540;DHT22;15906;52.046;4.724;2024-01-15T01:23:56;2.40;99.90
27540;DHT22;15906;52.046;4.724;2024-01-15T01:26:21;2.40;99.90
27540;DHT22;15906;52.046;4.724;2024-01-15T01:28:47;2.40;99.90
27540;DHT22;15906;52.046;4.724;2024-01-15T01:31:12;2.40;99.90
27540;DHT22;15906;52.046;4.724;2024-01-15T01:33:39;2.50;99.90
27540;DHT22;15906;52.046;4.724;2024-01-15T01:36:09;2.70;99.90
27540;DHT22;15906;52.046;4.724;2024-01-15T01:38:35;2.80;99.90
27540;DHT22;15906;52.046;4.724;2024-01-15T01:41:01;2.70;99.90
27540;DHT22;15906;52.046;4.724;2024-01-15T01:43:26;2.70;99.90
27540;DHT22;15906;52.046;4.724;2024-01-15T01:45:52;2.80;99.90
27540;DHT22;15906;52.046;4.724;2024-01-15T01:48:20;2.70;99.90
27540;DHT22;15906;52.046;4.724;2024-01-15T01:50:45;2.70;99.90
27540;DHT22;15906;52.046;4.724;2024-01-15T01:53:11;2.70;99.90
27540;DHT22;15906;52.046;4.724;2024-01-15T01:55:38;2.70;99.90
27540;DHT22;15906;52.046;4.724;2024-01-15T01:58:04;2.80;99.90
27540;DHT22;15906;52.046;4.724;2024-01-15T02:00:31;2.80;99.90
27540;DHT22;15906;52.046;4.724;2024-01-15T02:02:57;2.70;99.90
27540;DHT22;15906;52.046;4.724;2024-01-15T02:05:23;2.60;99.90
27540;DHT22;15906;52.046;4.724;2024-01-15T02:07:48;2.60;99.90
27540;DHT22;15906;52.046;4.724;2024-01-15T02:10:14;2.60;99.90
27540;DHT22;15906;52.046;4.724;2024-01-15T02:12:40;2.50;99.90
27540;DHT22;15906;52.046;4.724;2024-01-15T02:15:06;2.60;99.90
27540;DHT22;15906;52.046;4.724;2024-01-15T02:17:31;2.60;99.90
27540;DHT22;15906;52.046;4.724;2024-01-15T02:19:57;2.50;99.90
27540;DHT22;15906;52.046;4.724;2024-01-15T02:22:22;2.60;99.90
27540;DHT22;15906;52.046;4.724;2024-01-15T02:24:48;2.50;99.90
27540;DHT22;15906;52.046;4.724;2024-01-15T02:27:14;2.50;99.90
27540;DHT22;15906;52.046;4.724;2024-01-15T02:29:40;2.60;99.90
27540;DHT22;15906;52.046;4.724;2024-01-15T02:32:06;2.50;99.90
27540;DHT22;15906;52.046;4.724;2024-01-15T02:34:35;2.50;99.90
27540;DHT22;15906;52.046;4.724;2024-01-15T02:37:00;2.40;99.90
27540;DHT22;15906;52.046;4.724;2024-01-15T02:39:26;2.50;99.90
27540;DHT22;15906;52.046;4.724;2024-01-15T02:41:51;2.50;99.90
27540;DHT22;15906;52.046;4.724;2024-01-15T02:44:17;2.40;99.90
27540;DHT22;15906;52.046;4.724;2024-01-15T02:46:42;2.40;99.90
27540;DHT22;15906;52.046;4.724;2024-01-15T02:49:08;2.40;99.90
27540;DHT22;15906;52.046;4.724;2024-01-15T02:51:34;2.30;99.90
27540;DHT22;15906;52.046;4.724;2024-01-15T02:53:59;2.30;99.90
27540;DHT22;15906;52.046;4.724;2024-01-15T02:56:25;2.30;99.90
27540;DHT22;15906;52.046;4.724;2024-01-15T02:58:50;2.30;99.90
27540;DHT22;15906;52.046;4.724;2024-01-15T03:01:18;2.20;99.90
27540;DHT22;15906;52.046;4.724;2024-01-15T03:03:44;2.20;99.90
27540;DHT22;15906;52.046;4.724;2024-01-15T03:06:10;2.30;99.90
27540;DHT22;15906;52.046;4.724;2024-01-15T03:08:35;2.30;99.90
27540;DHT22;15906;52.046;4.724;2024-01-15T03:11:01;2.40;99.90
27540;DHT22;15906;52.046;4.724;2024-01-15T03:13:27;2.30;99.90
27540;DHT22;15906;52.046;4.724;2024-01-15T03:15:52;2.20;99.90
27540;DHT22;15906;52.046;4.724;2024-01-15T03:18:18;2.20;99.90
27540;DHT22;15906;52.046;4.724;2024-01-15T03:20:43;2.20;99.90
27540;DHT22;15906;52.046;4.724;2024-01-15T03:23:09;2.20;99.90
27540;DHT22;15906;52.046;4.724;2024-01-15T03:25:34;2.20;99.90
27540;DHT22;15906;52.046;4.724;2024-01-15T03:28:00;2.30;99.90
27540;DHT22;15906;52.046;4.724;2024-01-15T03:30:25;2.30;99.90
27540;DHT22;15906;52.046;4.724;2024-01-15T03:32:51;2.50;99.90
27540;DHT22;15906;52.046;4.724;2024-01-15T03:35:16;2.60;99.90
27540;DHT22;15906;52.046;4.724;2024-01-15T03:37:42;2.60;99.90
27540;DHT22;15906;52.046;4.724;2024-01-15T03:40:08;2.70;99.90
27540;DHT22;15906;52.046;4.724;2024-01-15T03:42:34;2.70;99.90
27540;DHT22;15906;52.046;4.724;2024-01-15T03:44:59;2.80;99.90
27540;DHT22;15906;52.046;4.724;2024-01-15T03:47:25;2.70;99.90
27540;DHT22;15906;52.046;4.724;2024-01-15T03:49:51;2.60;99.90
27540;DHT22;15906;52.046;4.724;2024-01-15T03:52:16;2.60;99.90
27540;DHT22;15906;52.046;4.724;2024-01-15T03:54:42;2.50;99.90
27540;DHT22;15906;52.046;4.724;2024-01-15T03:57:07;2.50;99.90
27540;DHT22;15906;52.046;4.724;2024-01-15T03:59:33;2.40;99.90
27540;DHT22;15906;52.046;4.724;2024-01-15T04:01:59;2.40;99.90
27540;DHT22;15906;52.046;4.724;2024-01-15T04:04:24;2.40;99.90
27540;DHT22;15906;52.046;4.724;2024-01-15T04:06:50;2.40;99.90
27540;DHT22;15906;52.046;4.724;2024-01-15T04:09:15;2.40;99.90
27540;DHT22;15906;52.046;4.724;2024-01-15T04:11:41;2.30;99.90
27540;DHT22;15906;52.046;4.724;2024-01-15T04:14:06;2.30;99.90
27540;DHT22;15906;52.046;4.724;2024-01-15T04:16:32;2.30;99.90
27540;DHT22;15906;52.046;4.724;2024-01-15T04:18:57;2.20;99.90
27540;DHT22;15906;52.046;4.724;2024-01-15T04:21:23;2.30;99.90
27540;DHT22;15906;52.046;4.724;2024-01-15T04:23:49;2.30;99.90
27540;DHT22;15906;52.046;4.724;2024-01-15T04:26:14;2.30;99.90
27540;DHT22;15906;52.046;4.724;2024-01-15T04:28:40;2.30;99.90
27540;DHT22;15906;52.046;4.724;2024-01-15T04:31:05;2.30;99.90
27540;DHT22;15906;52.046;4.724;2024-01-15T04:33:31;2.30;99.90
27540;DHT22;15906;52.046;4.724;2024-01-15T04:35:57;2.20;99.90
27540;DHT22;15906;52.046;4.724;2024-01-15T04:38:26;2.30;99.90
27540;DHT22;15906;52.046;4.724;2024-01-15T04:40:51;2.20;99.90
27540;DHT22;15906;52.046;4.724;2024-01-15T04:43:17;2.30;99.90
27540;DHT22;15906;52.046;4.724;2024-01-15T04:45:43;2.30;99.90
27540;DHT22;15906;52.046;4.724;2024-01-15T04:48:08;2.40;99.90
27540;DHT22;15906;52.046;4.724;2024-01-15T04:50:34;2.30;99.90
27540;DHT22;15906;52.046;4.724;2024-01-15T04:52:59;2.40;99.90
27540;DHT22;15906;52.046;4.724;2024-01-15T04:55:25;2.40;99.90
27540;DHT22;15906;52.046;4.724;2024-01-15T04:57:50;2.40;99.90
27540;DHT22;15906;52.046;4.724;2024-01-15T05:00:16;2.30;99.90
27540;DHT22;15906;52.046;4.724;2024-01-15T05:02:41;2.40;99.90
27540;DHT22;15906;52.046;4.724;2024-01-15T05:05:07;2.40;99.90
27540;DHT22;15906;52.046;4.724;2024-01-15T05:07:33;2.40;99.90
27540;DHT22;15906;52.046;4.724;2024-01-15T05:09:58;2.40;99.90
27540;DHT22;15906;52.046;4.724;2024-01-15T05:12:24;2.30;99.90
27540;DHT22;15906;52.046;4.724;2024-01-15T05:14:49;2.30;99.90
27540;DHT22;15906;52.046;4.724;2024-01-15T05:17:15;2.40;99.90
27540;DHT22;15906;52.046;4.724;2024-01-15T05:19:40;2.30;99.90
27540;DHT22;15906;52.046;4.724;2024-01-15T05:22:06;2.20;99.90
27540;DHT22;15906;52.046;4.724;2024-01-15T05:24:31;2.20;99.90
27540;DHT22;15906;52.046;4.724;2024-01-15T05:26:57;2.30;99.90
27540;DHT22;15906;52.046;4.724;2024-01-15T05:29:22;2.20;99.90
27540;DHT22;15906;52.046;4.724;2024-01-15T05:31:48;2.20;99.90
27540;DHT22;15906;52.046;4.724;2024-01-15T05:34:13;2.30;99.90
27540;DHT22;15906;52.046;4.724;2024-01-15T05:36:39;2.20;99.90
27540;DHT22;15906;52.046;4.724;2024-01-15T05:39:05;2.20;99.90
27540;DHT22;15906;52.046;4.724;2024-01-15T05:41:30;2.20;99.90
27540;DHT22;15906;52.046;4.724;2024-01-15T05:43:56;2.20;99.90
27540;DHT22;15906;52.046;4.724;2024-01-15T05:46:21;2.20;99.90
27540;DHT22;15906;52.046;4.724;2024-01-15T05:48:47;2.30;99.90
27540;DHT22;15906;52.046;4.724;2024-01-15T05:51:12;2.20;99.90
27540;DHT22;15906;52.046;4.724;2024-01-15T05:53:38;2.10;99.90
27540;DHT22;15906;52.046;4.724;2024-01-15T05:56:05;2.00;99.90
27540;DHT22;15906;52.046;4.724;2024-01-15T05:58:31;2.00;99.90
27540;DHT22;15906;52.046;4.724;2024-01-15T06:00:56;2.10;99.90
27540;DHT22;15906;52.046;4.724;2024-01-15T06:03:22;2.10;99.90
27540;DHT22;15906;52.046;4.724;2024-01-15T06:05:48;2.00;99.90
27540;DHT22;15906;52.046;4.724;2024-01-15T06:08:13;2.10;99.90
27540;DHT22;15906;52.046;4.724;2024-01-15T06:10:40;2.10;99.90
27540;DHT22;15906;52.046;4.724;2024-01-15T06:13:05;2.00;99.90
27540;DHT22;15906;52.046;4.724;2024-01-15T06:15:31;2.10;99.90
27540;DHT22;15906;52.046;4.724;2024-01-15T06:17:56;2.00;99.90
27540;DHT22;15906;52.046;4.724;2024-01-15T06:20:22;2.00;99.90
27540;DHT22;15906;52.046;4.724;2024-01-15T06:22:47;1.90;99.90
27540;DHT22;15906;52.046;4.724;2024-01-15T06:25:13;1.90;99.90
27540;DHT22;15906;52.046;4.724;2024-01-15T06:27:38;1.80;99.90
27540;DHT22;15906;52.046;4.724;2024-01-15T06:30:05;1.90;99.90
27540;DHT22;15906;52.046;4.724;2024-01-15T06:32:30;1.80;99.90
27540;DHT22;15906;52.046;4.724;2024-01-15T06:34:56;1.80;99.90
27540;DHT22;15906;52.046;4.724;2024-01-15T06:37:21;1.80;99.90
27540;DHT22;15906;52.046;4.724;2024-01-15T06:39:47;1.80;99.90
27540;DHT22;15906;52.046;4.724;2024-01-15T06:42:13;2.00;99.90
27540;DHT22;15906;52.046;4.724;2024-01-15T06:44:38;2.00;99.90
27540;DHT22;15906;52.046;4.724;2024-01-15T06:47:05;2.10;99.90
27540;DHT22;15906;52.046;4.724;2024-01-15T06:49:30;2.10;99.90
27540;DHT22;15906;52.046;4.724;2024-01-15T06:51:56;2.00;99.90
27540;DHT22;15906;52.046;4.724;2024-01-15T06:54:21;1.90;99.90
27540;DHT22;15906;52.046;4.724;2024-01-15T06:56:47;2.00;99.90
27540;DHT22;15906;52.046;4.724;2024-01-15T06:59:13;1.90;99.90
27540;DHT22;15906;52.046;4.724;2024-01-15T07:01:38;1.90;99.90
27540;DHT22;15906;52.046;4.724;2024-01-15T07:04:04;1.90;99.90
27540;DHT22;15906;52.046;4.724;2024-01-15T07:06:29;1.90;99.90
27540;DHT22;15906;52.046;4.724;2024-01-15T07:08:56;1.90;99.90
27540;DHT22;15906;52.046;4.724;2024-01-15T07:11:21;1.80;99.90
27540;DHT22;15906;52.046;4.724;2024-01-15T07:13:47;1.70;99.90
27540;DHT22;15906;52.046;4.724;2024-01-15T07:16:12;1.60;99.90
27540;DHT22;15906;52.046;4.724;2024-01-15T07:18:38;1.50;99.90
27540;DHT22;15906;52.046;4.724;2024-01-15T07:21:04;1.40;99.90
27540;DHT22;15906;52.046;4.724;2024-01-15T07:23:31;1.40;99.90
27540;DHT22;15906;52.046;4.724;2024-01-15T07:25:57;1.40;99.90
27540;DHT22;15906;52.046;4.724;2024-01-15T07:28:23;1.40;99.90
27540;DHT22;15906;52.046;4.724;2024-01-15T07:30:48;1.30;99.90
27540;DHT22;15906;52.046;4.724;2024-01-15T07:33:14;1.40;99.90
27540;DHT22;15906;52.046;4.724;2024-01-15T07:35:40;1.40;99.90
27540;DHT22;15906;52.046;4.724;2024-01-15T07:38:05;1.40;99.90
27540;DHT22;15906;52.046;4.724;2024-01-15T07:40:31;1.30;99.90
27540;DHT22;15906;52.046;4.724;2024-01-15T07:42:56;1.30;99.90
27540;DHT22;15906;52.046;4.724;2024-01-15T07:45:22;1.30;99.90
27540;DHT22;15906;52.046;4.724;2024-01-15T07:47:47;1.40;99.90
27540;DHT22;15906;52.046;4.724;2024-01-15T07:50:14;1.30;99.90
27540;DHT22;15906;52.046;4.724;2024-01-15T07:52:40;1.30;99.90
27540;DHT22;15906;52.046;4.724;2024-01-15T07:55:09;1.40;99.90
27540;DHT22;15906;52.046;4.724;2024-01-15T07:57:34;1.30;99.90
27540;DHT22;15906;52.046;4.724;2024-01-15T08:00:01;1.30;99.90
27540;DHT22;15906;52.046;4.724;2024-01-15T08:02:29;1.40;99.90
27540;DHT22;15906;52.046;4.724;2024-01-15T08:04:54;1.40;99.90
27540;DHT22;15906;52.046;4.724;2024-01-15T08:07:20;1.50;99.90
27540;DHT22;15906;52.046;4.724;2024-01-15T08:09:45;1.40;99.90
27540;DHT22;15906;52.046;4.724;2024-01-15T08:12:13;1.30;99.90
27540;DHT22;15906;52.046;4.724;2024-01-15T08:14:38;1.30;99.90
27540;DHT22;15906;52.046;4.724;2024-01-15T08:17:04;1.30;99.90
27540;DHT22;15906;52.046;4.724;2024-01-15T08:19:30;1.40;99.90
27540;DHT22;15906;52.046;4.724;2024-01-15T08:21:55;1.30;99.90
27540;DHT22;15906;52.046;4.724;2024-01-15T08:24:21;1.40;99.90
27540;DHT22;15906;52.046;4.724;2024-01-15T08:26:46;1.40;99.90
27540;DHT22;15906;52.046;4.724;2024-01-15T08:29:12;1.40;99.90
27540;DHT22;15906;52.046;4.724;2024-01-15T08:31:37;1.50;99.90
27540;DHT22;15906;52.046;4.724;2024-01-15T08:34:03;1.60;99.90
27540;DHT22;15906;52.046;4.724;2024-01-15T08:36:28;1.60;99.90
27540;DHT22;15906;52.046;4.724;2024-01-15T08:38:57;1.70;99.90
27540;DHT22;15906;52.046;4.724;2024-01-15T08:41:22;1.70;99.90
27540;DHT22;15906;52.046;4.724;2024-01-15T08:43:48;1.80;99.90
27540;DHT22;15906;52.046;4.724;2024-01-15T08:46:14;1.90;99.90
27540;DHT22;15906;52.046;4.724;2024-01-15T08:48:40;1.90;99.90
27540;DHT22;15906;52.046;4.724;2024-01-15T08:51:05;2.00;99.90
27540;DHT22;15906;52.046;4.724;2024-01-15T08:53:31;2.10;99.90
27540;DHT22;15906;52.046;4.724;2024-01-15T08:55:58;2.10;99.90
27540;DHT22;15906;52.046;4.724;2024-01-15T08:58:24;2.30;99.90
27540;DHT22;15906;52.046;4.724;2024-01-15T09:00:50;2.40;99.90
27540;DHT22;15906;52.046;4.724;2024-01-15T09:03:16;2.40;99.90
27540;DHT22;15906;52.046;4.724;2024-01-15T09:05:41;2.30;99.90
27540;DHT22;15906;52.046;4.724;2024-01-15T09:08:08;2.30;99.90
27540;DHT22;15906;52.046;4.724;2024-01-15T09:10:33;2.10;99.90
27540;DHT22;15906;52.046;4.724;2024-01-15T09:12:59;2.10;99.90
27540;DHT22;15906;52.046;4.724;2024-01-15T09:15:25;2.00;99.90
27540;DHT22;15906;52.046;4.724;2024-01-15T09:17:51;1.90;99.90
27540;DHT22;15906;52.046;4.724;2024-01-15T09:20:16;1.80;99.90
27540;DHT22;15906;52.046;4.724;2024-01-15T09:22:42;1.80;99.90
27540;DHT22;15906;52.046;4.724;2024-01-15T09:25:08;1.80;99.90
27540;DHT22;15906;52.046;4.724;2024-01-15T09:27:35;1.80;99.90
27540;DHT22;15906;52.046;4.724;2024-01-15T09:30:01;1.80;99.90
27540;DHT22;15906;52.046;4.724;2024-01-15T09:32:27;1.80;99.90
27540;DHT22;15906;52.046;4.724;2024-01-15T09:34:52;1.90;99.90
27540;DHT22;15906;52.046;4.724;2024-01-15T09:37:18;1.80;99.90
27540;DHT22;15906;52.046;4.724;2024-01-15T09:39:50;1.80;99.90
27540;DHT22;15906;52.046;4.724;2024-01-15T09:42:16;1.80;99.90
27540;DHT22;15906;52.046;4.724;2024-01-15T09:44:42;1.80;99.90
27540;DHT22;15906;52.046;4.724;2024-01-15T09:47:08;1.70;99.90
27540;DHT22;15906;52.046;4.724;2024-01-15T09:49:34;1.90;99.90
27540;DHT22;15906;52.046;4.724;2024-01-15T09:52:01;2.20;99.90
27540;DHT22;15906;52.046;4.724;2024-01-15T09:54:27;2.50;99.90
27540;DHT22;15906;52.046;4.724;2024-01-15T09:56:54;2.90;99.90
27540;DHT22;15906;52.046;4.724;2024-01-15T09:59:20;3.00;99.90
27540;DHT22;15906;52.046;4.724;2024-01-15T10:01:48;3.10;99.90
27540;DHT22;15906;52.046;4.724;2024-01-15T10:04:15;3.10;99.90
27540;DHT22;15906;52.046;4.724;2024-01-15T10:06:44;3.30;99.90
27540;DHT22;15906;52.046;4.724;2024-01-15T10:09:13;3.60;99.90
27540;DHT22;15906;52.046;4.724;2024-01-15T10:11:42;3.60;99.90
27540;DHT22;15906;52.046;4.724;2024-01-15T10:14:09;3.40;99.90
27540;DHT22;15906;52.046;4.724;2024-01-15T10:16:41;3.30;99.90
27540;DHT22;15906;52.046;4.724;2024-01-15T10:19:07;3.20;99.90
27540;DHT22;15906;52.046;4.724;2024-01-15T10:21:33;3.50;99.90
27540;DHT22;15906;52.046;4.724;2024-01-15T10:24:02;3.70;99.90
27540;DHT22;15906;52.046;4.724;2024-01-15T10:26:28;3.50;99.90
27540;DHT22;15906;52.046;4.724;2024-01-15T10:28:54;3.50;99.90
27540;DHT22;15906;52.046;4.724;2024-01-15T10:31:20;3.40;99.90
27540;DHT22;15906;52.046;4.724;2024-01-15T10:33:50;3.20;99.90
27540;DHT22;15906;52.046;4.724;2024-01-15T10:36:16;3.20;99.90
27540;DHT22;15906;52.046;4.724;2024-01-15T10:38:45;3.10;99.90
27540;DHT22;15906;52.046;4.724;2024-01-15T10:41:11;2.90;99.90
27540;DHT22;15906;52.046;4.724;2024-01-15T10:43:37;2.80;99.90
27540;DHT22;15906;52.046;4.724;2024-01-15T10:46:03;2.70;99.90
27540;DHT22;15906;52.046;4.724;2024-01-15T10:48:29;2.60;99.90
27540;DHT22;15906;52.046;4.724;2024-01-15T10:50:57;2.60;99.90
27540;DHT22;15906;52.046;4.724;2024-01-15T10:53:23;2.60;99.90
27540;DHT22;15906;52.046;4.724;2024-01-15T10:55:50;2.70;99.90
27540;DHT22;15906;52.046;4.724;2024-01-15T10:58:17;2.80;99.90
27540;DHT22;15906;52.046;4.724;2024-01-15T11:00:44;2.70;99.90
27540;DHT22;15906;52.046;4.724;2024-01-15T11:03:10;2.60;99.90
27540;DHT22;15906;52.046;4.724;2024-01-15T11:05:40;2.60;99.90
27540;DHT22;15906;52.046;4.724;2024-01-15T11:08:07;2.60;99.90
27540;DHT22;15906;52.046;4.724;2024-01-15T11:10:46;2.60;99.90
27540;DHT22;15906;52.046;4.724;2024-01-15T11:13:21;2.60;99.90
27540;DHT22;15906;52.046;4.724;2024-01-15T11:15:56;2.50;99.90
27540;DHT22;15906;52.046;4.724;2024-01-15T11:18:23;2.60;99.90
27540;DHT22;15906;52.046;4.724;2024-01-15T11:23:50;3.30;99.90
27540;DHT22;15906;52.046;4.724;2024-01-15T11:26:32;3.80;99.90
27540;DHT22;15906;52.046;4.724;2024-01-15T11:29:08;4.30;99.90
27540;DHT22;15906;52.046;4.724;2024-01-15T11:34:10;4.80;99.90
27540;DHT22;15906;52.046;4.724;2024-01-15T11:41:58;3.60;99.90
27540;DHT22;15906;52.046;4.724;2024-01-15T11:44:24;3.40;99.90
27540;DHT22;15906;52.046;4.724;2024-01-15T11:47:00;3.10;99.90
27540;DHT22;15906;52.046;4.724;2024-01-15T11:50:00;3.00;99.90
27540;DHT22;15906;52.046;4.724;2024-01-15T11:52:35;3.00;99.90
27540;DHT22;15906;52.046;4.724;2024-01-15T11:55:34;2.90;99.90
27540;DHT22;15906;52.046;4.724;2024-01-15T11:58:01;2.90;99.90
27540;DHT22;15906;52.046;4.724;2024-01-15T12:00:28;2.80;99.90
27540;DHT22;15906;52.046;4.724;2024-01-15T12:02:54;2.80;99.90
27540;DHT22;15906;52.046;4.724;2024-01-15T12:05:20;2.80;99.90
27540;DHT22;15906;52.046;4.724;2024-01-15T12:07:47;2.80;99.90
27540;DHT22;15906;52.046;4.724;2024-01-15T12:15:29;2.70;99.90
27540;DHT22;15906;52.046;4.724;2024-01-15T12:17:56;2.70;99.90
27540;DHT22;15906;52.046;4.724;2024-01-15T12:20:26;2.70;99.90
27540;DHT22;15906;52.046;4.724;2024-01-15T12:22:52;2.70;99.90
27540;DHT22;15906;52.046;4.724;2024-01-15T12:25:18;2.70;99.90
27540;DHT22;15906;52.046;4.724;2024-01-15T12:27:44;2.80;99.90
27540;DHT22;15906;52.046;4.724;2024-01-15T12:30:13;3.00;99.90
27540;DHT22;15906;52.046;4.724;2024-01-15T12:32:42;3.10;99.90
27540;DHT22;15906;52.046;4.724;2024-01-15T12:35:09;3.00;99.90
27540;DHT22;15906;52.046;4.724;2024-01-15T12:37:44;3.00;99.90
27540;DHT22;15906;52.046;4.724;2024-01-15T12:40:12;2.90;99.90
27540;DHT22;15906;52.046;4.724;2024-01-15T12:42:40;2.90;99.90
27540;DHT22;15906;52.046;4.724;2024-01-15T12:45:09;3.00;99.90
27540;DHT22;15906;52.046;4.724;2024-01-15T12:47:36;3.00;99.90
27540;DHT22;15906;52.046;4.724;2024-01-15T12:50:02;3.00;99.90
27540;DHT22;15906;52.046;4.724;2024-01-15T12:52:28;3.00;99.90
27540;DHT22;15906;52.046;4.724;2024-01-15T12:54:54;3.00;99.90
27540;DHT22;15906;52.046;4.724;2024-01-15T12:57:20;3.20;99.90
27540;DHT22;15906;52.046;4.724;2024-01-15T12:59:46;3.40;99.90
27540;DHT22;15906;52.046;4.724;2024-01-15T13:02:13;3.60;99.90
27540;DHT22;15906;52.046;4.724;2024-01-15T13:04:38;3.80;99.90
27540;DHT22;15906;52.046;4.724;2024-01-15T13:07:05;4.00;99.90
27540;DHT22;15906;52.046;4.724;2024-01-15T13:09:31;4.20;99.90
27540;DHT22;15906;52.046;4.724;2024-01-15T13:11:57;4.30;99.90
27540;DHT22;15906;52.046;4.724;2024-01-15T13:14:23;4.40;99.90
27540;DHT22;15906;52.046;4.724;2024-01-15T13:16:48;4.30;99.90
27540;DHT22;15906;52.046;4.724;2024-01-15T13:19:14;4.40;99.90
27540;DHT22;15906;52.046;4.724;2024-01-15T13:21:43;4.40;99.90
27540;DHT22;15906;52.046;4.724;2024-01-15T13:24:08;4.10;99.90
27540;DHT22;15906;52.046;4.724;2024-01-15T13:26:35;3.80;99.90
27540;DHT22;15906;52.046;4.724;2024-01-15T13:29:02;3.50;99.90
27540;DHT22;15906;52.046;4.724;2024-01-15T13:31:29;3.30;99.90
27540;DHT22;15906;52.046;4.724;2024-01-15T13:33:55;3.20;99.90
27540;DHT22;15906;52.046;4.724;2024-01-15T13:36:24;3.20;99.90
27540;DHT22;15906;52.046;4.724;2024-01-15T13:38:51;3.00;99.90
27540;DHT22;15906;52.046;4.724;2024-01-15T13:41:17;3.00;99.90
27540;DHT22;15906;52.046;4.724;2024-01-15T13:43:48;3.00;99.90
27540;DHT22;15906;52.046;4.724;2024-01-15T13:46:14;2.90;99.90
27540;DHT22;15906;52.046;4.724;2024-01-15T13:48:40;2.90;99.90
27540;DHT22;15906;52.046;4.724;2024-01-15T13:51:05;2.90;99.90
27540;DHT22;15906;52.046;4.724;2024-01-15T13:53:31;2.80;99.90
27540;DHT22;15906;52.046;4.724;2024-01-15T13:55:57;2.80;99.90
27540;DHT22;15906;52.046;4.724;2024-01-15T13:58:22;2.80;99.90
27540;DHT22;15906;52.046;4.724;2024-01-15T14:00:48;2.80;99.90
27540;DHT22;15906;52.046;4.724;2024-01-15T14:03:14;2.80;99.90
27540;DHT22;15906;52.046;4.724;2024-01-15T14:05:40;2.70;99.90
27540;DHT22;15906;52.046;4.724;2024-01-15T14:08:06;2.80;99.90
27540;DHT22;15906;52.046;4.724;2024-01-15T14:10:31;2.80;99.90
27540;DHT22;15906;52.046;4.724;2024-01-15T14:12:57;2.80;99.90
27540;DHT22;15906;52.046;4.724;2024-01-15T14:15:22;2.80;99.90
27540;DHT22;15906;52.046;4.724;2024-01-15T14:17:48;2.90;99.90
27540;DHT22;15906;52.046;4.724;2024-01-15T14:20:13;3.00;99.90
27540;DHT22;15906;52.046;4.724;2024-01-15T14:22:39;3.10;99.90
27540;DHT22;15906;52.046;4.724;2024-01-15T14:25:05;3.20;99.90
27540;DHT22;15906;52.046;4.724;2024-01-15T14:27:30;3.30;99.90
27540;DHT22;15906;52.046;4.724;2024-01-15T14:29:56;3.50;99.90
27540;DHT22;15906;52.046;4.724;2024-01-15T14:32:21;3.60;99.90
27540;DHT22;15906;52.046;4.724;2024-01-15T14:34:47;3.70;99.90
27540;DHT22;15906;52.046;4.724;2024-01-15T14:37:13;3.70;99.90
27540;DHT22;15906;52.046;4.724;2024-01-15T14:39:39;3.80;99.90
27540;DHT22;15906;52.046;4.724;2024-01-15T14:42:04;3.80;99.90
27540;DHT22;15906;52.046;4.724;2024-01-15T14:44:30;3.80;99.90
27540;DHT22;15906;52.046;4.724;2024-01-15T14:46:57;3.80;99.90
27540;DHT22;15906;52.046;4.724;2024-01-15T14:49:24;3.70;99.90
27540;DHT22;15906;52.046;4.724;2024-01-15T14:51:50;3.60;99.90
27540;DHT22;15906;52.046;4.724;2024-01-15T14:54:15;3.60;99.90
27540;DHT22;15906;52.046;4.724;2024-01-15T14:56:41;3.60;99.90
27540;DHT22;15906;52.046;4.724;2024-01-15T14:59:08;3.50;99.90
27540;DHT22;15906;52.046;4.724;2024-01-15T15:01:34;3.30;99.90
27540;DHT22;15906;52.046;4.724;2024-01-15T15:03:59;3.10;99.90
27540;DHT22;15906;52.046;4.724;2024-01-15T15:06:25;2.90;99.90
27540;DHT22;15906;52.046;4.724;2024-01-15T15:08:53;2.90;99.90
27540;DHT22;15906;52.046;4.724;2024-01-15T15:11:20;2.80;99.90
27540;DHT22;15906;52.046;4.724;2024-01-15T15:13:48;2.80;99.90
27540;DHT22;15906;52.046;4.724;2024-01-15T15:16:15;2.80;99.90
27540;DHT22;15906;52.046;4.724;2024-01-15T15:18:41;2.80;99.90
27540;DHT22;15906;52.046;4.724;2024-01-15T15:21:08;2.80;99.90
27540;DHT22;15906;52.046;4.724;2024-01-15T15:23:33;2.70;99.90
27540;DHT22;15906;52.046;4.724;2024-01-15T15:25:59;2.80;99.90
27540;DHT22;15906;52.046;4.724;2024-01-15T15:28:25;2.90;99.90
27540;DHT22;15906;52.046;4.724;2024-01-15T15:30:50;3.00;99.90
27540;DHT22;15906;52.046;4.724;2024-01-15T15:33:16;3.10;99.90
27540;DHT22;15906;52.046;4.724;2024-01-15T15:35:43;3.00;99.90
27540;DHT22;15906;52.046;4.724;2024-01-15T15:38:09;3.00;99.90
27540;DHT22;15906;52.046;4.724;2024-01-15T15:40:34;3.00;99.90
27540;DHT22;15906;52.046;4.724;2024-01-15T15:43:00;3.00;99.90
27540;DHT22;15906;52.046;4.724;2024-01-15T15:45:25;2.90;99.90
27540;DHT22;15906;52.046;4.724;2024-01-15T15:47:51;2.90;99.90
27540;DHT22;15906;52.046;4.724;2024-01-15T15:50:16;2.90;99.90
27540;DHT22;15906;52.046;4.724;2024-01-15T15:52:42;2.90;99.90
27540;DHT22;15906;52.046;4.724;2024-01-15T15:55:07;2.80;99.90